Thursday, November 23, 2017, 2:29 AM EST
Back to Local

KDSV, Dansville Municipal Airport

Location: Dansville, NY, United States Lat: 42.567
Local Time: 2:29 AM EST ( 7:29 GMT) Lon: -77.717
Time Zone: US/Eastern Elev: 662 ft

Show me the last for .
Show Decoded

2017-11-23 01:54 METAR KDSV 230654Z AUTO 00000KT 10SM OVC032 M02/M09 A3017 RMK AO2 SLP234
                 T10221089 =
2017-11-23 00:54 METAR KDSV 230554Z AUTO 29006KT 10SM OVC033 M02/M09 A3018 RMK AO2 SLP236
                 T10221094 11011 21022 56004 =
2017-11-22 23:54 METAR KDSV 230454Z AUTO 31005KT 10SM OVC031 M02/M08 A3018 RMK AO2 SLP235
                 T10171083 400831022 =
2017-11-22 22:54 METAR KDSV 230354Z AUTO 31005KT 10SM OVC033 M02/M08 A3017 RMK AO2 SLP234
                 T10171083 =
2017-11-22 21:54 METAR KDSV 230254Z AUTO 30004KT 10SM OVC033 M02/M08 A3019 RMK AO2 SLP239
                 T10171083 58007 =
2017-11-22 20:54 METAR KDSV 230154Z AUTO 27003KT 10SM OVC039 M02/M08 A3020 RMK AO2 SLP242
                 T10171083 =
2017-11-22 19:54 METAR KDSV 230054Z AUTO 31006KT 10SM OVC038 M01/M08 A3022 RMK AO2 SLP248
                 T10111083 =
2017-11-22 18:54 METAR KDSV 222354Z AUTO 31006KT 10SM OVC037 M01/M08 A3021 RMK AO2 SLP247
                 T10111083 10011 21011 51016 =
2017-11-22 17:54 METAR KDSV 222254Z AUTO 30009G18KT 270V330 10SM OVC037 M01/M09 A3020 RMK AO2
                 SLP241 T10111089 =
2017-11-22 16:54 METAR KDSV 222154Z AUTO 30009KT 10SM OVC035 M01/M08 A3018 RMK AO2 SLP237
                 T10061078 =
2017-11-22 15:54 METAR KDSV 222054Z AUTO 29007KT 10SM OVC035 00/M07 A3016 RMK AO2 SLP229
                 T00001067 53016 =
2017-11-22 14:54 METAR KDSV 221954Z AUTO 31006KT 10SM OVC038 01/M06 A3013 RMK AO2 SLP217
                 T00061061 =
2017-11-22 14:19 METAR KDSV 221919Z AUTO 31011KT 10SM SCT029 OVC035 01/M06 A3012 RMK AO2
                 T00061056 =
2017-11-22 14:07 METAR KDSV 221907Z AUTO 30009KT 10SM BKN029 OVC039 01/M05 A3012 RMK AO2
                 T00061050 =
2017-11-22 13:54 METAR KDSV 221854Z AUTO 32011KT 10SM SCT031 OVC040 01/M04 A3011 RMK AO2 SLP212
                 T00111044 =
2017-11-22 12:54 METAR KDSV 221754Z AUTO 31009KT 10SM OVC039 01/M04 A3011 RMK AO2 SLP211 60001
                 T00111039 10017 20000 53003 =
2017-11-22 12:21 METAR KDSV 221721Z AUTO 31013KT 10SM FEW027 SCT034 OVC042 01/M04 A3010 RMK AO2
                 T00111044 =
2017-11-22 11:54 METAR KDSV 221654Z AUTO 31012KT 10SM OVC029 01/M04 A3011 RMK AO2 SLP209
                 T00111039 =
2017-11-22 10:54 METAR KDSV 221554Z AUTO 31008KT 10SM BKN038 OVC047 02/M03 A3010 RMK AO2 SLP207
                 T00171028 =
2017-11-22 09:54 METAR KDSV 221454Z AUTO 30007KT 270V330 10SM FEW020 OVC031 02/M01 A3010 RMK AO2
                 SNB29E38 SLP208 P0000 60001 T00171011 51013 =
2017-11-22 09:51 METAR KDSV 221451Z AUTO 31006KT 10SM SCT021 OVC031 02/M01 A3010 RMK AO2 SNB29E38
                 P0000 =
2017-11-22 09:24 METAR KDSV 221424Z AUTO 33008KT 10SM SCT021 BKN027 OVC034 02/M01 A3010 RMK AO2
                 T00171011 =
2017-11-22 08:54 METAR KDSV 221354Z AUTO 31005KT 10SM FEW030 FEW046 OVC070 01/M01 A3009 RMK AO2
                 SLP203 T00111011 =
2017-11-22 07:54 METAR KDSV 221254Z AUTO 00000KT 10SM FEW022 FEW028 OVC038 01/M01 A3006 RMK AO2
                 SNE09 SLP195 P0001 T00061011 =
2017-11-22 07:17 METAR KDSV 221217Z AUTO 35005KT 10SM FEW005 SCT024 OVC036 01/M01 A3005 RMK AO2
                 SNE09 P0000 T00061006 =
2017-11-22 07:06 METAR KDSV 221206Z AUTO 33007KT 6SM -SN BR SCT003 BKN024 OVC040 01/M01 A3004 RMK
                 AO2 P0000 T00061006 =
2017-11-22 06:58 METAR KDSV 221158Z AUTO 32005KT 2 1/2SM -SN BR SCT003 BKN008 OVC020 00/M01 A3004
                 RMK AO2 P0000 T00001006 =
2017-11-22 06:54 METAR KDSV 221154Z AUTO 32008KT 1 1/2SM -SN BR BKN003 BKN010 OVC018 00/M01 A3004
                 RMK AO2 SLP186 P0002 60015 70015 T00001006 10078 20000 51028 =
2017-11-22 06:40 METAR KDSV 221140Z AUTO 34007KT 1 1/2SM -SN BR BKN007 OVC010 01/M01 A3003 RMK
                 AO2 P0001 T00061006 =
2017-11-22 06:26 METAR KDSV 221126Z AUTO 33005KT 2SM -SN BR OVC007 01/M01 A3002 RMK AO2 P0001
                 T00061006 =
2017-11-22 06:13 METAR KDSV 221113Z AUTO 34006KT 3SM -SN BR OVC005 01/M01 A3001 RMK AO2 P0001
                 T00061006 =
2017-11-22 06:02 METAR KDSV 221102Z AUTO 32006KT 3SM -SN BR OVC003 01/M01 A3001 RMK AO2 P0000
                 T00061006 =
2017-11-22 05:54 METAR KDSV 221054Z AUTO 32005KT 2 1/2SM -SN BR OVC003 01/M01 A3001 RMK AO2
                 RAE06SNB06 SLP175 P0004 T00061006 =
2017-11-22 05:07 METAR KDSV 221007Z AUTO 33010KT 7SM -SN OVC007 01/00 A2999 RMK AO2 RAE06SNB06
                 P0002 T00110000 =
2017-11-22 04:54 METAR KDSV 220954Z AUTO 34009KT 8SM -RA BKN009 BKN014 OVC019 02/01 A2999 RMK AO2
                 SLP166 P0006 T00220006 =
2017-11-22 03:54 METAR KDSV 220854Z AUTO 34010KT 7SM -RA OVC012 03/01 A2995 RMK AO2 SLP154 P0003
                 60003 T00330011 53027 =
2017-11-22 03:34 METAR KDSV 220834Z AUTO 33009KT 8SM -RA OVC014 04/02 A2994 RMK AO2 P0002
                 T00390017 =
2017-11-22 02:54 METAR KDSV 220754Z AUTO 33012KT 10SM -RA BKN017 OVC024 05/03 A2991 RMK AO2 RAB42
                 SLP140 P0000 T00500028 =

Support USWX by starting your Amazon purchase here.